Time;durP1;ratioP1;P1;durP2;ratioP2;P2;SDS_P1;SDS_P2;PMS_P1;PMS_P2;Temp;Humidity;BMP_temperature;BMP_pressure;BME280_temperature;BME280_humidity;BME280_pressure;Samples;Min_cycle;Max_cycle;Signal;HPM_P1;HPM_P2
2024/03/10 00:01:58;;;;;;;18.85;12.07;;;;;;;;;;4993799;28;20042;-57
2024/03/10 00:04:25;;;;;;;18.13;11.65;;;;;;;;;;4993878;28;20030;-54
2024/03/10 00:06:52;;;;;;;21.00;12.88;;;;;;;;;;4976617;28;20121;-55
2024/03/10 00:09:18;;;;;;;18.08;12.07;;;;;;;;;;4993977;28;20022;-57
2024/03/10 00:11:44;;;;;;;17.95;12.40;;;;;;;;;;4993977;28;20022;-56
2024/03/10 00:14:10;;;;;;;16.77;11.23;;;;;;;;;;4993785;28;20030;-56
2024/03/10 00:16:36;;;;;;;23.77;12.02;;;;;;;;;;4994113;28;20493;-55
2024/03/10 00:19:03;;;;;;;16.90;12.15;;;;;;;;;;4993470;28;20026;-57
2024/03/10 00:21:30;;;;;;;21.80;12.00;;;;;;;;;;4974456;28;20034;-54
2024/03/10 00:23:56;;;;;;;19.40;12.15;;;;;;;;;;4974085;28;20114;-57
2024/03/10 00:26:22;;;;;;;22.85;12.48;;;;;;;;;;4974146;28;20074;-56
2024/03/10 00:28:49;;;;;;;17.88;11.57;;;;;;;;;;4956620;28;20034;-56
2024/03/10 00:31:15;;;;;;;20.25;12.43;;;;;;;;;;4974459;28;20046;-58
2024/03/10 00:33:44;;;;;;;17.08;12.35;;;;;;;;;;4974361;28;20644;-57
2024/03/10 00:36:10;;;;;;;19.30;11.40;;;;;;;;;;4974334;28;20041;-57
2024/03/10 00:38:37;;;;;;;20.77;12.25;;;;;;;;;;4974432;28;20039;-54
2024/03/10 00:41:04;;;;;;;21.58;13.10;;;;;;;;;;4974646;28;20085;-56
2024/03/10 00:43:31;;;;;;;20.58;13.27;;;;;;;;;;4956577;28;20047;-58
2024/03/10 00:45:57;;;;;;;18.00;12.48;;;11.20;99.90;;;;;;4974003;28;20093;-57
2024/03/10 00:48:22;;;;;;;19.75;12.77;;;11.20;99.90;;;;;;4974640;28;20031;-55
2024/03/10 00:50:49;;;;;;;16.60;11.50;;;11.20;99.90;;;;;;4974207;28;20110;-58
2024/03/10 00:53:15;;;;;;;18.95;12.88;;;11.20;99.90;;;;;;4956533;28;20499;-56
2024/03/10 00:55:42;;;;;;;17.30;11.50;;;11.20;99.90;;;;;;4953626;28;20113;-54
2024/03/10 00:58:10;;;;;;;16.52;11.68;;;11.20;99.90;;;;;;4974134;28;20070;-58
2024/03/10 01:00:36;;;;;;;19.83;12.00;;;11.20;99.90;;;;;;4973920;28;20030;-57
2024/03/10 01:03:06;;;;;;;16.80;12.93;;;;;;;;;;4973931;28;20035;-53
2024/03/10 01:05:32;;;;;;;17.65;10.77;;;;;;;;;;4973989;28;20035;-55
2024/03/10 01:08:00;;;;;;;20.67;11.75;;;;;;;;;;4974012;28;20475;-54
2024/03/10 01:10:26;;;;;;;16.95;11.68;;;;;;;;;;4974035;28;20042;-54
2024/03/10 01:12:52;;;;;;;18.38;11.85;;;;;;;;;;4973964;28;20039;-55
2024/03/10 01:15:19;;;;;;;15.85;11.27;;;;;;;;;;4977261;28;20045;-56
2024/03/10 01:17:46;;;;;;;19.30;11.65;;;;;;;;;;4977410;28;20026;-55
2024/03/10 01:20:13;;;;;;;14.68;11.27;;;;;;;;;;4957091;28;20057;-58
2024/03/10 01:22:39;;;;;;;17.17;12.00;;;;;;;;;;4977458;28;20061;-57
2024/03/10 01:25:05;;;;;;;18.73;11.10;;;;;;;;;;4977004;28;20438;-58
2024/03/10 01:27:32;;;;;;;16.13;11.50;;;;;;;;;;4977415;28;20039;-57
2024/03/10 01:29:58;;;;;;;17.70;11.50;;;;;;;;;;4977310;28;20067;-54
2024/03/10 01:32:24;;;;;;;16.55;10.70;;;11.10;99.90;;;;;;4977393;28;20093;-58
2024/03/10 01:34:50;;;;;;;16.52;10.98;;;11.10;99.90;;;;;;4976133;28;20019;-57
2024/03/10 01:37:16;;;;;;;18.45;12.07;;;11.10;99.90;;;;;;4977280;28;20035;-56
2024/03/10 01:39:41;;;;;;;15.68;11.02;;;11.00;99.90;;;;;;4977166;28;20498;-58
2024/03/10 01:42:07;;;;;;;14.30;10.65;;;11.00;99.90;;;;;;4943655;28;20043;-55
2024/03/10 01:44:33;;;;;;;14.32;10.00;;;11.10;99.90;;;;;;4880230;28;20069;-59
2024/03/10 01:47:00;;;;;;;17.25;10.70;;;11.10;99.90;;;;;;4976914;28;20049;-57
2024/03/10 01:49:27;;;;;;;14.20;9.93;;;11.10;99.90;;;;;;4977312;28;20035;-57
2024/03/10 01:51:55;;;;;;;14.68;10.52;;;11.20;99.90;;;;;;4976931;28;20027;-56
2024/03/10 01:54:25;;;;;;;17.30;10.98;;;11.20;99.90;;;;;;4976124;28;20054;-55
2024/03/10 01:56:51;;;;;;;18.02;10.48;;;11.20;99.90;;;;;;4966499;28;20053;-54
2024/03/10 01:59:17;;;;;;;14.75;9.63;;;11.20;99.90;;;;;;4975131;28;20399;-54
2024/03/10 02:01:44;;;;;;;13.88;8.70;;;11.10;99.90;;;;;;4976829;28;20042;-56
2024/03/10 02:04:10;;;;;;;16.23;8.80;;;;;;;;;;4976885;28;20034;-54
2024/03/10 02:06:37;;;;;;;14.15;8.18;;;10.80;99.90;;;;;;4976520;28;20039;-57
2024/03/10 02:09:03;;;;;;;13.05;8.48;;;10.60;99.90;;;;;;4976645;28;20158;-58
2024/03/10 02:11:29;;;;;;;12.80;8.68;;;;;;;;;;4958707;28;20043;-57
2024/03/10 02:13:55;;;;;;;10.80;7.65;;;10.60;99.90;;;;;;4976605;28;20475;-58
2024/03/10 02:16:23;;;;;;;14.18;8.50;;;10.50;99.90;;;;;;4976419;28;20035;-55
2024/03/10 02:18:51;;;;;;;14.65;9.20;;;10.50;99.90;;;;;;4976395;28;20038;-58
2024/03/10 02:21:21;;;;;;;13.65;9.10;;;10.40;99.90;;;;;;4974755;28;20403;-58
2024/03/10 02:23:59;;;;;;;14.02;9.23;;;10.40;99.90;;;;;;4976121;28;20085;-57
2024/03/10 02:26:32;;;;;;;13.82;9.38;;;10.50;99.90;;;;;;4976165;28;20368;-57
2024/03/10 02:29:15;;;;;;;15.82;9.55;;;10.40;99.90;;;;;;4976256;28;20053;-57
2024/03/10 02:48:09;;;;;;;11.65;8.13;;;10.40;99.90;;;;;;4976076;28;20049;-55
2024/03/10 02:50:35;;;;;;;12.90;8.20;;;;;;;;;;4976107;28;20062;-57
2024/03/10 02:53:01;;;;;;;15.23;7.95;;;10.30;99.90;;;;;;4975797;28;20459;-57
2024/03/10 02:55:27;;;;;;;11.02;7.22;;;10.20;99.90;;;;;;4975315;28;20035;-57
2024/03/10 02:57:53;;;;;;;12.85;7.93;;;10.10;99.90;;;;;;4975628;28;20459;-55
2024/03/10 03:00:19;;;;;;;11.55;6.35;;;;;;;;;;4975827;28;20043;-56
2024/03/10 03:02:45;;;;;;;9.57;6.55;;;10.00;99.90;;;;;;4975865;28;20023;-53
2024/03/10 03:05:11;;;;;;;8.77;4.10;;;;;;;;;;4975473;28;20080;-58
2024/03/10 03:07:37;;;;;;;11.68;6.63;;;10.00;99.90;;;;;;4975556;28;20039;-55
2024/03/10 03:10:05;;;;;;;11.23;7.25;;;10.00;99.90;;;;;;4957629;28;20038;-55
2024/03/10 03:12:31;;;;;;;12.55;7.95;;;10.10;99.90;;;;;;4975541;28;20450;-57
2024/03/10 03:14:57;;;;;;;10.32;6.05;;;10.10;99.90;;;;;;4975469;28;20135;-57
2024/03/10 03:17:24;;;;;;;16.35;8.70;;;10.00;99.90;;;;;;4975379;28;20034;-59
2024/03/10 03:19:49;;;;;;;12.48;7.53;;;10.00;99.90;;;;;;4963848;28;20513;-59
2024/03/10 03:22:15;;;;;;;16.00;8.15;;;10.00;99.90;;;;;;4960842;28;20038;-57
2024/03/10 03:24:41;;;;;;;14.73;8.00;;;10.00;99.90;;;;;;4994736;28;20031;-58
2024/03/10 03:27:08;;;;;;;10.98;7.93;;;10.10;99.90;;;;;;4994555;28;20046;-57
2024/03/10 03:29:33;;;;;;;12.45;7.55;;;10.10;99.90;;;;;;4994197;28;20088;-58
2024/03/10 03:31:59;;;;;;;10.82;7.47;;;10.00;99.90;;;;;;4994541;28;20510;-58
2024/03/10 03:34:25;;;;;;;11.75;7.70;;;10.00;99.90;;;;;;4994469;28;20467;-55
2024/03/10 03:36:51;;;;;;;7.10;4.30;;;9.90;99.90;;;;;;4993697;28;20030;-56
2024/03/10 03:39:17;;;;;;;11.00;6.65;;;;;;;;;;4994226;28;20037;-55
2024/03/10 03:41:43;;;;;;;6.90;5.40;;;;;;;;;;4994588;28;20492;-55
2024/03/10 03:44:09;;;;;;;8.82;4.85;;;9.80;99.90;;;;;;4994438;28;20037;-55
2024/03/10 03:46:34;;;;;;;17.40;6.20;;;9.70;99.90;;;;;;4944326;28;20418;-57
2024/03/10 03:49:00;;;;;;;11.93;7.00;;;;;;;;;;4994225;28;20529;-57
2024/03/10 03:51:27;;;;;;;10.48;7.32;;;;;;;;;;4994202;28;20529;-56
2024/03/10 03:53:53;;;;;;;13.05;8.63;;;9.80;99.90;;;;;;4994186;28;20042;-54
2024/03/10 03:56:20;;;;;;;15.02;9.30;;;9.80;99.90;;;;;;4960200;28;20387;-58
2024/03/10 03:58:46;;;;;;;15.43;9.27;;;9.80;99.90;;;;;;4994119;28;20038;-54
2024/03/10 04:01:12;;;;;;;13.73;8.32;;;;;;;;;;4994090;28;20026;-54
2024/03/10 04:03:40;;;;;;;11.60;7.50;;;10.00;99.90;;;;;;4959972;28;20046;-59
2024/03/10 04:06:06;;;;;;;11.80;8.70;;;10.00;99.90;;;;;;4976326;28;20192;-59
2024/03/10 04:08:32;;;;;;;11.10;8.48;;;10.00;99.90;;;;;;4994189;28;20030;-55
2024/03/10 04:10:58;;;;;;;13.20;8.25;;;9.80;99.90;;;;;;4994038;28;20114;-56
2024/03/10 04:13:24;;;;;;;11.50;8.68;;;9.80;99.90;;;;;;4994449;28;20097;-60
2024/03/10 04:15:50;;;;;;;10.75;7.60;;;9.80;99.90;;;;;;4993798;28;20356;-57
2024/03/10 04:18:16;;;;;;;11.23;6.82;;;9.80;99.90;;;;;;4993933;28;20033;-56
2024/03/10 04:20:45;;;;;;;12.10;7.55;;;9.80;99.90;;;;;;4991951;28;20047;-60
2024/03/10 04:23:11;;;;;;;12.27;8.02;;;9.60;99.90;;;;;;4994124;28;20122;-53
2024/03/10 04:25:37;;;;;;;11.27;7.53;;;9.60;99.90;;;;;;4979786;28;20137;-54
2024/03/10 04:28:03;;;;;;;10.68;7.95;;;9.50;99.90;;;;;;4959771;28;20445;-56
2024/03/10 04:30:29;;;;;;;13.80;9.02;;;9.50;99.90;;;;;;4994060;28;20030;-58
2024/03/10 04:32:55;;;;;;;15.40;8.32;;;9.50;99.90;;;;;;4959886;28;20521;-59
2024/03/10 04:35:21;;;;;;;11.50;7.90;;;9.70;99.90;;;;;;4993229;28;20030;-54
2024/03/10 04:37:47;;;;;;;15.10;7.72;;;9.70;99.90;;;;;;4993661;28;20475;-54
2024/03/10 04:40:13;;;;;;;11.80;7.50;;;9.70;99.90;;;;;;4993810;28;20030;-58
2024/03/10 04:42:39;;;;;;;10.88;6.57;;;9.80;99.90;;;;;;4993701;28;20034;-56
2024/03/10 04:45:11;;;;;;;11.77;7.05;;;9.70;99.90;;;;;;4993597;28;20046;-58
2024/03/10 04:47:40;;;;;;;10.75;7.10;;;9.70;99.90;;;;;;4994449;28;20129;-56
2024/03/10 04:50:06;;;;;;;12.73;6.90;;;9.80;99.90;;;;;;4997629;28;20034;-57
2024/03/10 04:52:33;;;;;;;9.50;6.60;;;9.70;99.90;;;;;;4995730;28;20089;-54
2024/03/10 04:54:59;;;;;;;10.82;6.90;;;9.60;99.90;;;;;;4997256;28;20042;-55
2024/03/10 04:57:25;;;;;;;10.60;7.03;;;9.60;99.90;;;;;;4997537;28;20109;-59
2024/03/10 04:59:51;;;;;;;12.02;6.72;;;9.60;99.90;;;;;;4996148;28;20034;-59
2024/03/10 05:02:16;;;;;;;11.65;7.32;;;9.60;99.90;;;;;;4997423;28;20034;-59
2024/03/10 05:04:43;;;;;;;9.35;6.65;;;9.50;99.90;;;;;;4996684;28;20501;-56
2024/03/10 05:07:09;;;;;;;12.00;7.75;;;9.60;99.90;;;;;;4997036;28;20042;-57
2024/03/10 05:09:35;;;;;;;10.55;7.55;;;9.70;99.90;;;;;;4996463;28;20034;-55
2024/03/10 05:12:02;;;;;;;10.23;6.85;;;9.80;99.90;;;;;;4997294;28;20076;-53
2024/03/10 05:14:28;;;;;;;12.30;8.15;;;9.80;99.90;;;;;;4997011;28;20042;-59
2024/03/10 05:16:54;;;;;;;15.85;8.98;;;9.90;99.90;;;;;;4997057;28;20582;-58
2024/03/10 05:19:20;;;;;;;14.32;9.15;;;10.00;99.90;;;;;;4981471;28;20368;-56
2024/03/10 05:21:46;;;;;;;10.73;8.50;;;10.00;99.90;;;;;;5016665;28;20026;-58
2024/03/10 05:24:12;;;;;;;13.27;7.45;;;10.10;99.90;;;;;;5012075;28;20500;-58
2024/03/10 05:26:39;;;;;;;9.85;7.18;;;9.90;99.90;;;;;;4999258;28;20375;-58
2024/03/10 05:29:05;;;;;;;10.93;7.32;;;;;;;;;;5001046;28;20133;-55
2024/03/10 05:31:32;;;;;;;9.77;6.32;;;9.90;99.90;;;;;;5016336;28;20029;-57
2024/03/10 05:33:59;;;;;;;8.52;5.68;;;10.00;99.90;;;;;;4982068;28;20045;-59
2024/03/10 05:36:29;;;;;;;8.05;6.05;;;10.10;99.90;;;;;;5004652;28;20426;-54
2024/03/10 05:38:55;;;;;;;11.43;6.75;;;10.30;99.90;;;;;;4962044;28;20050;-56
2024/03/10 05:41:21;;;;;;;8.70;6.60;;;9.90;99.90;;;;;;4996256;28;20027;-58
2024/03/10 05:43:47;;;;;;;11.75;7.43;;;10.00;99.90;;;;;;4996291;28;20034;-58
2024/03/10 05:46:13;;;;;;;10.18;7.40;;;9.90;99.90;;;;;;4995846;28;20093;-59
2024/03/10 05:48:40;;;;;;;9.68;6.63;;;10.00;99.90;;;;;;4996197;28;20026;-53
2024/03/10 05:51:07;;;;;;;14.63;10.80;;;;;;;;;;4961778;28;20084;-55
2024/03/10 05:53:32;;;;;;;14.93;9.60;;;10.30;99.90;;;;;;4995805;28;20027;-58
2024/03/10 05:55:59;;;;;;;12.60;9.13;;;10.40;99.90;;;;;;4961583;28;20045;-53
2024/03/10 05:58:24;;;;;;;11.00;7.15;;;10.50;99.90;;;;;;4995835;28;20022;-58
2024/03/10 06:00:51;;;;;;;10.38;7.95;;;10.40;99.90;;;;;;4995091;28;20026;-56
2024/03/10 06:03:20;;;;;;;11.68;8.77;;;10.50;99.90;;;;;;4995488;28;20486;-55
2024/03/10 06:05:46;;;;;;;10.55;7.78;;;;;;;;;;4994653;28;20050;-53
2024/03/10 06:08:12;;;;;;;11.40;8.18;;;10.80;99.90;;;;;;4999822;28;20027;-54
2024/03/10 06:10:39;;;;;;;11.32;8.15;;;10.80;99.90;;;;;;4995959;28;20548;-54
2024/03/10 06:13:05;;;;;;;10.15;8.30;;;11.00;99.90;;;;;;5009447;28;20023;-54
2024/03/10 06:15:32;;;;;;;15.27;7.72;;;11.10;99.90;;;;;;4995469;28;20554;-54
2024/03/10 06:18:21;;;;;;;11.07;7.82;;;11.30;99.90;;;;;;4995706;28;20018;-54
2024/03/10 06:26:13;;;;;;;14.00;9.60;;;11.60;99.90;;;;;;4976189;28;20046;-54
2024/03/10 06:28:39;;;;;;;16.90;14.55;;;11.70;99.90;;;;;;4976538;28;20101;-54
2024/03/10 06:31:05;;;;;;;30.98;25.20;;;11.80;99.90;;;;;;4976360;28;20495;-54
2024/03/10 06:33:35;;;;;;;15.65;13.32;;;11.90;99.90;;;;;;4976209;28;20030;-54
2024/03/10 06:36:08;;;;;;;52.25;33.30;;;12.20;99.90;;;;;;4976064;28;20109;-54
2024/03/10 06:38:52;;;;;;;167.00;113.53;;;12.30;99.90;;;;;;4976050;28;20031;-54
2024/03/10 06:41:18;;;;;;;46.67;30.50;;;13.00;99.90;;;;;;4976228;28;20041;-54
2024/03/10 06:43:44;;;;;;;42.58;33.53;;;13.00;99.90;;;;;;4975990;28;20526;-54
2024/03/10 06:46:10;;;;;;;168.88;103.85;;;13.30;99.90;;;;;;4975867;28;20033;-54
2024/03/10 06:48:36;;;;;;;19.65;12.25;;;13.50;99.90;;;;;;4976038;28;20031;-54
2024/03/10 06:51:02;;;;;;;13.50;11.35;;;13.60;99.90;;;;;;4975813;28;20490;-54
2024/03/10 06:53:28;;;;;;;14.65;12.25;;;13.60;99.90;;;;;;4958067;28;20042;-53
2024/03/10 06:55:55;;;;;;;16.75;9.48;;;13.70;99.90;;;;;;4988885;28;20088;-54
2024/03/10 06:58:22;;;;;;;11.38;6.13;;;14.10;99.90;;;;;;4995279;28;20030;-54
2024/03/10 07:00:47;;;;;;;6.80;3.80;;;14.10;99.90;;;;;;4995122;28;20034;-54
2024/03/10 07:03:13;;;;;;;8.30;3.55;;;14.20;99.90;;;;;;4995017;28;20072;-54
2024/03/10 07:05:42;;;;;;;54.83;34.92;;;14.30;99.90;;;;;;4994948;28;20026;-54
2024/03/10 07:08:09;;;;;;;7.40;4.65;;;14.50;99.90;;;;;;4994923;28;20038;-54
2024/03/10 07:10:35;;;;;;;43.35;24.20;;;;;;;;;;4994604;28;20031;-54
2024/03/10 07:13:04;;;;;;;206.75;142.25;;;;;;;;;;4994510;28;20467;-55
2024/03/10 07:15:30;;;;;;;69.75;47.05;;;15.10;99.90;;;;;;4994963;28;20073;-54
2024/03/10 07:17:56;;;;;;;59.30;41.92;;;15.50;99.90;;;;;;4944659;28;20042;-55
2024/03/10 07:20:22;;;;;;;25.10;19.42;;;16.10;99.90;;;;;;4968182;28;20062;-54
2024/03/10 07:22:48;;;;;;;10.65;9.55;;;16.60;99.90;;;;;;4994768;28;20040;-54
2024/03/10 07:25:14;;;;;;;6.03;3.83;;;;;;;;;;4994831;28;20066;-54
2024/03/10 07:27:41;;;;;;;3.97;2.10;;;17.50;99.90;;;;;;4994558;28;20043;-54
2024/03/10 07:30:07;;;;;;;15.75;10.15;;;;;;;;;;4994824;28;20029;-54
2024/03/10 07:32:33;;;;;;;271.17;173.82;;;;;;;;;;4994602;28;20026;-54
2024/03/10 07:35:00;;;;;;;40.33;30.20;;;;;;;;;;4994693;28;20109;-55
2024/03/10 07:37:26;;;;;;;77.57;53.92;;;18.00;99.00;;;;;;4994695;28;20033;-54
2024/03/10 07:39:53;;;;;;;14.80;13.40;;;;;;;;;;4992705;28;20045;-54
2024/03/10 07:42:20;;;;;;;3.03;1.90;;;;;;;;;;4976450;28;20050;-54
2024/03/10 07:44:46;;;;;;;7.45;1.70;;;;;;;;;;4994402;28;20038;-54
2024/03/10 07:47:13;;;;;;;2.65;1.30;;;;;;;;;;4994228;28;20042;-54
2024/03/10 07:49:39;;;;;;;2.33;1.00;;;;;;;;;;4994343;28;20057;-54
2024/03/10 07:52:06;;;;;;;4.43;2.22;;;;;;;;;;4994169;28;20104;-54
2024/03/10 07:54:32;;;;;;;2.38;1.23;;;;;;;;;;4994336;28;20077;-54
2024/03/10 07:56:59;;;;;;;3.95;2.47;;;;;;;;;;4994208;28;20149;-54
2024/03/10 07:59:25;;;;;;;6.20;5.70;;;19.60;93.80;;;;;;4994070;28;20026;-54
2024/03/10 08:01:51;;;;;;;2.85;1.30;;;19.80;93.40;;;;;;4994177;28;20033;-54
2024/03/10 08:04:18;;;;;;;2.72;2.33;;;;;;;;;;4994026;28;20022;-54
2024/03/10 08:06:44;;;;;;;4.13;1.50;;;;;;;;;;4994047;28;20038;-54
2024/03/10 08:09:15;;;;;;;4.40;2.65;;;;;;;;;;4994144;28;20034;-54
2024/03/10 08:11:41;;;;;;;3.53;1.60;;;;;;;;;;4993427;28;20034;-55
2024/03/10 08:14:08;;;;;;;2.50;1.30;;;;;;;;;;4971845;28;20035;-53
2024/03/10 08:16:34;;;;;;;2.85;1.90;;;20.30;99.90;;;;;;4961700;28;20081;-53
2024/03/10 08:19:00;;;;;;;2.78;1.15;;;20.50;95.90;;;;;;4963426;28;20085;-54
2024/03/10 08:21:27;;;;;;;2.85;1.45;;;;;;;;;;4965196;28;20046;-54
2024/03/10 08:23:52;;;;;;;4.63;1.40;;;21.50;99.90;;;;;;4967110;28;20476;-53
2024/03/10 08:26:18;;;;;;;2.58;1.30;;;21.20;90.70;;;;;;4966068;28;20102;-53
2024/03/10 08:28:44;;;;;;;2.95;1.23;;;20.80;90.20;;;;;;4970490;28;20027;-53
2024/03/10 08:31:12;;;;;;;1.05;0.90;;;20.30;90.50;;;;;;4934672;28;20037;-54
2024/03/10 08:33:39;;;;;;;8.15;4.60;;;20.20;90.50;;;;;;4972182;28;20530;-54
2024/03/10 08:36:05;;;;;;;5.05;2.95;;;20.20;90.90;;;;;;4970436;28;20094;-54
2024/03/10 08:38:30;;;;;;;4.50;1.63;;;20.60;90.60;;;;;;4969486;28;20121;-54
2024/03/10 08:40:57;;;;;;;2.15;1.45;;;20.70;91.00;;;;;;4937099;29;20122;-54
2024/03/10 08:43:23;;;;;;;1.48;0.93;;;20.40;90.60;;;;;;4972523;28;20440;-54
2024/03/10 08:45:49;;;;;;;2.92;1.30;;;20.00;90.70;;;;;;4956301;28;20085;-54
2024/03/10 08:48:15;;;;;;;5.03;2.75;;;20.10;90.60;;;;;;4966888;28;20031;-54
2024/03/10 08:50:42;;;;;;;5.65;1.98;;;20.20;91.00;;;;;;4950264;28;20446;-55
2024/03/10 08:53:09;;;;;;;7.45;3.22;;;;;;;;;;4971723;28;20030;-53
2024/03/10 08:55:35;;;;;;;9.65;4.53;;;21.30;99.60;;;;;;4968287;28;20054;-54
2024/03/10 08:58:03;;;;;;;4.13;2.20;;;21.10;90.00;;;;;;4937703;28;20038;-53
2024/03/10 09:00:30;;;;;;;8.65;3.53;;;21.00;90.00;;;;;;4973073;28;20128;-54
2024/03/10 09:02:56;;;;;;;4.45;2.72;;;20.70;89.30;;;;;;4965079;28;20057;-54
2024/03/10 09:05:23;;;;;;;5.22;2.50;;;20.60;90.00;;;;;;4939920;28;20027;-54
2024/03/10 09:07:50;;;;;;;8.40;3.60;;;20.20;90.40;;;;;;4970149;28;20046;-54
2024/03/10 09:10:15;;;;;;;7.22;3.65;;;19.70;90.80;;;;;;4972057;28;20023;-53
2024/03/10 09:12:42;;;;;;;6.72;2.45;;;20.00;90.90;;;;;;4972808;28;20081;-52
2024/03/10 09:15:12;;;;;;;3.83;2.10;;;20.10;90.50;;;;;;4968566;28;20042;-51
2024/03/10 09:17:41;;;;;;;5.85;2.35;;;20.00;90.10;;;;;;4969410;28;20050;-52
2024/03/10 09:20:13;;;;;;;7.97;2.30;;;19.90;89.90;;;;;;4971820;28;20091;-52
2024/03/10 09:22:44;;;;;;;8.23;3.08;;;19.90;90.20;;;;;;4935696;28;20510;-52
2024/03/10 09:25:20;;;;;;;6.55;2.85;;;20.20;90.30;;;;;;4966448;28;20483;-53
2024/03/10 09:27:51;;;;;;;5.55;2.58;;;20.20;90.10;;;;;;4968318;28;20510;-53
2024/03/10 09:30:18;;;;;;;5.93;2.78;;;20.30;89.90;;;;;;4917702;29;20530;-52
2024/03/10 09:32:49;;;;;;;6.45;2.20;;;20.40;90.40;;;;;;4940773;28;20391;-51
2024/03/10 09:35:20;;;;;;;6.03;2.85;;;20.00;90.20;;;;;;4967856;28;20045;-52
2024/03/10 09:37:47;;;;;;;7.03;2.65;;;20.10;90.40;;;;;;4973789;28;20031;-52
2024/03/10 09:40:15;;;;;;;4.13;1.83;;;20.10;90.20;;;;;;4969982;28;20077;-52
2024/03/10 09:42:41;;;;;;;3.65;1.63;;;19.90;90.00;;;;;;4973012;28;20117;-52
2024/03/10 09:45:15;;;;;;;6.18;2.35;;;20.00;90.10;;;;;;4937803;28;20564;-52
2024/03/10 09:47:48;;;;;;;4.35;2.00;;;20.30;89.90;;;;;;4949013;28;20105;-51
2024/03/10 09:50:22;;;;;;;3.67;1.85;;;20.50;89.60;;;;;;4934788;28;20103;-53
2024/03/10 09:52:49;;;;;;;5.78;1.80;;;;;;;;;;4967963;28;20031;-52
2024/03/10 09:55:15;;;;;;;6.28;1.70;;;19.90;99.90;;;;;;4970251;28;20156;-52
2024/03/10 09:57:42;;;;;;;4.13;1.15;;;20.20;89.50;;;;;;4968749;28;20027;-51
2024/03/10 10:00:12;;;;;;;5.82;1.70;;;19.90;89.70;;;;;;4964084;28;20044;-52
2024/03/10 10:02:42;;;;;;;6.38;2.88;;;20.50;89.80;;;;;;4929421;28;20051;-52
2024/03/10 10:05:15;;;;;;;5.85;2.03;;;;;;;;;;4968850;28;20031;-51
2024/03/10 10:07:41;;;;;;;3.42;2.08;;;21.60;91.90;;;;;;4971974;28;20081;-52
2024/03/10 10:10:07;;;;;;;9.38;4.90;;;;;;;;;;4949587;28;20513;-52
2024/03/10 10:12:33;;;;;;;9.05;2.67;;;;;;;;;;4972696;28;20061;-53
2024/03/10 10:14:59;;;;;;;4.00;1.65;;;23.20;86.20;;;;;;4968659;28;20031;-53
2024/03/10 10:17:25;;;;;;;3.00;1.50;;;22.70;84.40;;;;;;4965744;28;20170;-52
2024/03/10 10:19:51;;;;;;;8.75;2.20;;;22.60;85.00;;;;;;4963865;28;20050;-53
2024/03/10 10:22:18;;;;;;;1.80;1.13;;;22.60;85.10;;;;;;4956238;28;20349;-51
2024/03/10 10:24:43;;;;;;;3.63;1.67;;;22.00;85.30;;;;;;4971528;28;20392;-53
2024/03/10 10:27:09;;;;;;;4.43;1.88;;;22.10;85.90;;;;;;4964308;28;20043;-52
2024/03/10 10:29:51;;;;;;;5.45;2.30;;;21.60;85.80;;;;;;4968046;28;20031;-52
2024/03/10 10:32:21;;;;;;;7.63;1.92;;;21.70;87.10;;;;;;4967746;28;20552;-52
2024/03/10 10:34:50;;;;;;;5.53;1.95;;;21.70;86.10;;;;;;4970579;28;20031;-52
2024/03/10 10:37:16;;;;;;;3.72;1.80;;;22.40;86.80;;;;;;4967462;28;20033;-53
2024/03/10 10:39:42;;;;;;;9.48;2.60;;;22.30;85.70;;;;;;4933858;28;20129;-51
2024/03/10 10:42:08;;;;;;;8.43;1.92;;;;;;;;;;4963605;28;20037;-51
2024/03/10 10:44:34;;;;;;;4.10;2.00;;;22.30;85.20;;;;;;4919486;28;20521;-52
2024/03/10 10:47:01;;;;;;;3.25;1.40;;;22.20;86.00;;;;;;4967551;28;20514;-52
2024/03/10 10:49:29;;;;;;;3.47;2.30;;;22.20;85.60;;;;;;4968882;28;20119;-51
2024/03/10 10:51:56;;;;;;;4.90;2.35;;;21.70;86.40;;;;;;4965426;28;20033;-51
2024/03/10 10:54:23;;;;;;;6.40;2.20;;;;;;;;;;4967477;28;20093;-51
2024/03/10 10:57:00;;;;;;;5.80;1.67;;;21.40;99.90;;;;;;4970352;28;20442;-51
2024/03/10 10:59:27;;;;;;;4.88;2.67;;;21.50;99.90;;;;;;4966243;28;20062;-53
2024/03/10 11:02:23;;;;;;;3.17;1.35;;;22.10;87.60;;;;;;4966375;28;20031;-52
2024/03/10 11:04:53;;;;;;;3.55;2.35;;;22.40;85.80;;;;;;4963894;28;20499;-52
2024/03/10 11:07:18;;;;;;;7.05;2.17;;;23.00;86.00;;;;;;4968919;28;20043;-52
2024/03/10 11:09:45;;;;;;;2.65;1.45;;;;;;;;;;4962803;28;20054;-52
2024/03/10 11:12:17;;;;;;;5.97;2.03;;;22.70;83.50;;;;;;4965804;28;20023;-53
2024/03/10 11:14:43;;;;;;;6.75;2.20;;;;;;;;;;4966580;28;20031;-52
2024/03/10 11:17:15;;;;;;;5.25;2.00;;;;;;;;;;4931942;29;20051;-52
2024/03/10 11:19:44;;;;;;;5.10;1.70;;;;;;;;;;4964421;28;20380;-52
2024/03/10 11:22:11;;;;;;;5.65;2.00;;;;;;;;;;4967397;28;20027;-53
2024/03/10 11:24:39;;;;;;;5.85;2.58;;;;;;;;;;4967428;28;20392;-52
2024/03/10 11:27:12;;;;;;;3.72;2.03;;;22.60;83.30;;;;;;4950077;28;20051;-52
2024/03/10 11:29:41;;;;;;;5.18;2.10;;;22.60;84.00;;;;;;4968218;28;20037;-52
2024/03/10 11:32:26;;;;;;;6.50;1.83;;;23.00;85.10;;;;;;4930802;28;20067;-53
2024/03/10 11:34:52;;;;;;;6.72;2.40;;;22.60;84.20;;;;;;4965885;28;20026;-52
2024/03/10 11:37:19;;;;;;;7.47;2.22;;;23.00;85.90;;;;;;4930141;28;20039;-51
2024/03/10 11:39:45;;;;;;;4.22;2.10;;;;;;;;;;4948720;28;20043;-52
2024/03/10 11:42:12;;;;;;;6.07;2.47;;;22.30;85.20;;;;;;4962937;28;20062;-52
2024/03/10 11:44:40;;;;;;;3.63;2.13;;;22.50;86.20;;;;;;4964966;28;20039;-52
2024/03/10 11:47:11;;;;;;;7.05;2.10;;;22.40;85.80;;;;;;4935254;28;20383;-51
2024/03/10 11:49:37;;;;;;;3.70;1.95;;;22.60;85.60;;;;;;4927941;28;20447;-53
2024/03/10 11:52:06;;;;;;;7.57;2.97;;;22.10;85.30;;;;;;4966152;28;20031;-53
2024/03/10 11:54:32;;;;;;;8.30;2.55;;;22.20;86.20;;;;;;4959501;28;20035;-52
2024/03/10 11:56:59;;;;;;;3.65;1.77;;;22.10;86.80;;;;;;4969407;28;20031;-51
2024/03/10 11:59:25;;;;;;;5.30;1.90;;;;;;;;;;4971729;28;20500;-53
2024/03/10 12:01:53;;;;;;;5.93;2.42;;;;;;;;;;4960364;28;20038;-51
2024/03/10 12:04:20;;;;;;;5.90;1.55;;;;;;;;;;4963442;28;20035;-53
2024/03/10 12:06:46;;;;;;;5.38;1.90;;;22.50;86.20;;;;;;4934519;28;20137;-51
2024/03/10 12:09:13;;;;;;;7.78;2.97;;;;;;;;;;4962576;28;20043;-51
2024/03/10 12:11:42;;;;;;;5.75;1.88;;;;;;;;;;4939153;28;20074;-51
2024/03/10 12:14:11;;;;;;;5.10;1.80;;;;;;;;;;4914880;28;20489;-51
2024/03/10 12:16:38;;;;;;;6.93;2.75;;;23.30;97.30;;;;;;4967645;28;20031;-54
2024/03/10 12:19:04;;;;;;;12.77;2.08;;;;;;;;;;4948722;28;20047;-53
2024/03/10 12:21:32;;;;;;;8.60;2.97;;;;;;;;;;4964014;28;20034;-53
2024/03/10 12:24:00;;;;;;;9.85;2.60;;;;;;;;;;4969261;28;20045;-53
2024/03/10 12:26:26;;;;;;;7.78;1.63;;;23.50;80.70;;;;;;4969371;28;20037;-53
2024/03/10 12:28:56;;;;;;;9.70;2.35;;;;;;;;;;4964241;28;20042;-53
2024/03/10 12:31:25;;;;;;;5.47;1.80;;;;;;;;;;4963077;28;20411;-53
2024/03/10 12:33:52;;;;;;;7.32;1.65;;;;;;;;;;4965737;28;20503;-53
2024/03/10 12:36:20;;;;;;;5.63;1.73;;;;;;;;;;4960468;28;20054;-52
2024/03/10 12:38:46;;;;;;;8.07;2.17;;;;;;;;;;4965013;28;20043;-53
2024/03/10 12:41:13;;;;;;;6.10;1.90;;;;;;;;;;4966524;28;20200;-52
2024/03/10 12:43:45;;;;;;;10.55;2.53;;;;;;;;;;4965481;28;20031;-53
2024/03/10 12:46:17;;;;;;;7.38;1.92;;;23.30;78.70;;;;;;4967435;28;20113;-53
2024/03/10 12:48:47;;;;;;;5.65;1.70;;;23.30;79.30;;;;;;4968305;28;20042;-52
2024/03/10 12:51:14;;;;;;;9.73;1.70;;;;;;;;;;4965443;28;20062;-53
2024/03/10 12:53:40;;;;;;;6.13;1.70;;;22.60;80.30;;;;;;4963025;28;20027;-52
2024/03/10 12:56:12;;;;;;;6.30;1.65;;;22.50;81.40;;;;;;4967393;28;20031;-52
2024/03/10 12:58:39;;;;;;;6.35;1.88;;;22.40;81.90;;;;;;4970804;28;20046;-52
2024/03/10 13:01:05;;;;;;;4.57;1.50;;;22.30;83.40;;;;;;4943985;29;20039;-53
2024/03/10 13:03:34;;;;;;;6.88;1.30;;;22.20;82.40;;;;;;4968430;28;20041;-53
2024/03/10 13:06:00;;;;;;;3.30;1.25;;;;;;;;;;4970458;28;20387;-53
2024/03/10 13:08:26;;;;;;;8.50;2.47;;;21.90;81.80;;;;;;4963996;28;20031;-53
2024/03/10 13:10:53;;;;;;;8.00;1.83;;;21.80;82.90;;;;;;4963442;28;20434;-52
2024/03/10 13:13:19;;;;;;;6.90;1.92;;;21.80;83.50;;;;;;4939294;28;20047;-53
2024/03/10 13:15:45;;;;;;;8.82;2.40;;;21.60;83.80;;;;;;4968593;28;20153;-52
2024/03/10 13:18:12;;;;;;;7.65;2.97;;;21.50;84.30;;;;;;4963389;28;20087;-52
2024/03/10 13:20:39;;;;;;;13.60;4.25;;;;;;;;;;4983490;28;20058;-52
2024/03/10 13:23:25;;;;;;;9.50;3.45;;;21.30;84.10;;;;;;4944484;28;20041;-52
2024/03/10 13:25:51;;;;;;;10.10;3.38;;;;;;;;;;4948138;29;20039;-52
2024/03/10 13:28:20;;;;;;;13.32;3.83;;;21.20;94.80;;;;;;4941978;29;20050;-52
2024/03/10 13:30:45;;;;;;;22.08;6.40;;;21.20;87.80;;;;;;4896106;29;20055;-52
2024/03/10 13:33:11;;;;;;;11.98;3.40;;;21.10;89.50;;;;;;4949079;29;20039;-52
2024/03/10 13:35:37;;;;;;;11.63;3.80;;;21.10;89.10;;;;;;4946004;28;20113;-52